MSC14 HESH-ULLI
Flight info
| Callsign | MSC14 |
|---|---|
| Flight time | N/A |
| Altitude | 32000 |
| Route | SHM L677 CVO L617 NOZ L551 ANTAR/N0460F340 UN133 ATFIR DCT LOMOS DCT NARKA DCT KEKED/N0462F350 DCT PODAN M857 SUWGI L735 VABER DCT LISGO DCT LATLA/K0852F350 L71 GITIL N743 KOLET KOLET1V |
| Aircraft | A320/M-SDE3FGHIRWY/LB1 |
Departure
| Time | 2026-04-30 00:02 |
|---|---|
| Airport | Sharm El Sheikh International Airport (HESH) |
Arrival
| Time | N/A |
|---|---|
| Airport | Pulkovo Airport (ULLI) |
| Time | Latitude | Longitude | Altitude | Speed | Heading |
|---|---|---|---|---|---|
| 2026-04-29 23:42 | 27.97369 | 34.38339 | 172 ft | 0 kts | 313° |
| 2026-04-29 23:54 | 27.97365 | 34.38344 | 173 ft | 5 kts | 313° |
| 2026-04-29 23:54 | 27.97343 | 34.38372 | 173 ft | 5 kts | 311° |
| 2026-04-29 23:55 | 27.97323 | 34.38400 | 173 ft | 4 kts | 302° |
| 2026-04-29 23:55 | 27.97315 | 34.38417 | 173 ft | 2 kts | 276° |
| 2026-04-29 23:55 | 27.97315 | 34.38430 | 173 ft | 2 kts | 242° |
| 2026-04-29 23:55 | 27.97321 | 34.38441 | 173 ft | 2 kts | 226° |
| 2026-04-29 23:56 | 27.97329 | 34.38449 | 173 ft | 2 kts | 223° |
| 2026-04-29 23:56 | 27.97330 | 34.38450 | 172 ft | 0 kts | 223° |
| 2026-04-29 23:57 | 27.97325 | 34.38445 | 172 ft | 3 kts | 223° |
| 2026-04-29 23:58 | 27.97302 | 34.38420 | 172 ft | 6 kts | 223° |
| 2026-04-29 23:58 | 27.97261 | 34.38379 | 172 ft | 10 kts | 222° |
| 2026-04-29 23:58 | 27.97204 | 34.38319 | 172 ft | 13 kts | 223° |
| 2026-04-29 23:58 | 27.97141 | 34.38254 | 172 ft | 11 kts | 222° |
| 2026-04-29 23:59 | 27.97075 | 34.38185 | 172 ft | 15 kts | 222° |
| 2026-04-29 23:59 | 27.97009 | 34.38129 | 173 ft | 11 kts | 185° |
| 2026-04-29 23:59 | 27.96946 | 34.38168 | 174 ft | 7 kts | 130° |
| 2026-04-29 23:59 | 27.96931 | 34.38188 | 174 ft | 4 kts | 131° |
| 2026-04-30 00:00 | 27.96903 | 34.38222 | 173 ft | 8 kts | 133° |
| 2026-04-30 00:00 | 27.96877 | 34.38275 | 173 ft | 5 kts | 86° |
| 2026-04-30 00:00 | 27.96904 | 34.38309 | 173 ft | 8 kts | 43° |
| 2026-04-30 00:00 | 27.96909 | 34.38315 | 173 ft | 0 kts | 43° |
| 2026-04-30 00:01 | 27.96918 | 34.38325 | 173 ft | 11 kts | 43° |
| 2026-04-30 00:01 | 27.97169 | 34.38585 | 175 ft | 85 kts | 44° |
| 2026-04-30 00:01 | 27.97769 | 34.39203 | 174 ft | 145 kts | 43° |
| 2026-04-30 00:01 | 27.98629 | 34.40107 | 220 ft | 187 kts | 41° |
| 2026-04-30 00:02 | 27.99625 | 34.41124 | 745 ft | 199 kts | 37° |
| 2026-04-30 00:02 | 28.00800 | 34.41919 | 1562 ft | 195 kts | 23° |
| 2026-04-30 00:02 | 28.02044 | 34.42542 | 2220 ft | 198 kts | 21° |
| 2026-04-30 00:02 | 28.03359 | 34.43173 | 2461 ft | 215 kts | 22° |
| 2026-04-30 00:03 | 28.04764 | 34.43870 | 2740 ft | 231 kts | 22° |
| 2026-04-30 00:03 | 28.06282 | 34.44654 | 3089 ft | 248 kts | 24° |
| 2026-04-30 00:03 | 28.07887 | 34.45512 | 3519 ft | 260 kts | 24° |
| 2026-04-30 00:03 | 28.09530 | 34.46417 | 4124 ft | 265 kts | 24° |
| 2026-04-30 00:04 | 28.11197 | 34.47354 | 4733 ft | 270 kts | 25° |
| 2026-04-30 00:04 | 28.12937 | 34.48206 | 5337 ft | 273 kts | 11° |
| 2026-04-30 00:04 | 28.14825 | 34.48396 | 5944 ft | 275 kts | 360° |
| 2026-04-30 00:04 | 28.16763 | 34.48426 | 6520 ft | 281 kts | 360° |
| 2026-04-30 00:05 | 28.18735 | 34.48452 | 7117 ft | 285 kts | 0° |
| 2026-04-30 00:05 | 28.20705 | 34.48254 | 7747 ft | 285 kts | 343° |
| 2026-04-30 00:05 | 28.22508 | 34.47337 | 8358 ft | 286 kts | 323° |
| 2026-04-30 00:05 | 28.23934 | 34.45779 | 8969 ft | 287 kts | 304° |
| 2026-04-30 00:06 | 28.24883 | 34.43787 | 9566 ft | 289 kts | 295° |
| 2026-04-30 00:06 | 28.25743 | 34.41736 | 10123 ft | 293 kts | 295° |
| 2026-04-30 00:06 | 28.26645 | 34.39601 | 10399 ft | 308 kts | 295° |
| 2026-04-30 00:06 | 28.27600 | 34.37348 | 10616 ft | 324 kts | 295° |
| 2026-04-30 00:07 | 28.28604 | 34.34984 | 10800 ft | 340 kts | 295° |
| 2026-04-30 00:07 | 28.29655 | 34.32510 | 10968 ft | 356 kts | 295° |
| 2026-04-30 00:07 | 28.30754 | 34.29921 | 11116 ft | 371 kts | 295° |
| 2026-04-30 00:07 | 28.31890 | 34.27241 | 11388 ft | 381 kts | 295° |
| 2026-04-30 00:08 | 28.33045 | 34.24518 | 11847 ft | 383 kts | 295° |
| 2026-04-30 00:08 | 28.34197 | 34.21796 | 11978 ft | 383 kts | 295° |
| 2026-04-30 00:08 | 28.35346 | 34.19074 | 12029 ft | 382 kts | 295° |
| 2026-04-30 00:08 | 28.36498 | 34.16348 | 12459 ft | 384 kts | 295° |
| 2026-04-30 00:09 | 28.37660 | 34.13602 | 13019 ft | 387 kts | 295° |
| 2026-04-30 00:09 | 28.38825 | 34.10845 | 13523 ft | 388 kts | 295° |
| 2026-04-30 00:09 | 28.39996 | 34.08074 | 14041 ft | 390 kts | 295° |
| 2026-04-30 00:09 | 28.41155 | 34.05328 | 14534 ft | 391 kts | 295° |
| 2026-04-30 00:10 | 28.42331 | 34.02543 | 15019 ft | 392 kts | 295° |
| 2026-04-30 00:10 | 28.43510 | 33.99748 | 15521 ft | 393 kts | 295° |
| 2026-04-30 00:10 | 28.44692 | 33.96941 | 16007 ft | 394 kts | 295° |
| 2026-04-30 00:10 | 28.45875 | 33.94130 | 16463 ft | 394 kts | 295° |
| 2026-04-30 00:11 | 28.47060 | 33.91307 | 16892 ft | 397 kts | 295° |
| 2026-04-30 00:11 | 28.48251 | 33.88470 | 17347 ft | 398 kts | 295° |
| 2026-04-30 00:11 | 28.49443 | 33.85628 | 17786 ft | 399 kts | 295° |
| 2026-04-30 00:11 | 28.50639 | 33.82773 | 18231 ft | 401 kts | 295° |
| 2026-04-30 00:12 | 28.51840 | 33.79903 | 18589 ft | 401 kts | 295° |
| 2026-04-30 00:12 | 28.53041 | 33.77034 | 18964 ft | 402 kts | 295° |
| 2026-04-30 00:12 | 28.54248 | 33.74152 | 19318 ft | 403 kts | 295° |
| 2026-04-30 00:12 | 28.55439 | 33.71310 | 19682 ft | 404 kts | 294° |
| 2026-04-30 00:13 | 28.56650 | 33.68414 | 20061 ft | 404 kts | 295° |
| 2026-04-30 00:13 | 28.57853 | 33.65530 | 20390 ft | 404 kts | 294° |
| 2026-04-30 00:13 | 28.59062 | 33.62634 | 20661 ft | 405 kts | 295° |
| 2026-04-30 00:13 | 28.60276 | 33.59735 | 20992 ft | 406 kts | 295° |
| 2026-04-30 00:14 | 28.61488 | 33.56830 | 21320 ft | 406 kts | 295° |
| 2026-04-30 00:14 | 28.62748 | 33.53945 | 21619 ft | 407 kts | 299° |
| 2026-04-30 00:14 | 28.64362 | 33.51293 | 21929 ft | 409 kts | 307° |
| 2026-04-30 00:14 | 28.66150 | 33.48769 | 22217 ft | 410 kts | 307° |
| 2026-04-30 00:15 | 28.67948 | 33.46242 | 22498 ft | 411 kts | 306° |
| 2026-04-30 00:15 | 28.69750 | 33.43711 | 22772 ft | 411 kts | 307° |
| 2026-04-30 00:15 | 28.71552 | 33.41179 | 23041 ft | 412 kts | 306° |
| 2026-04-30 00:15 | 28.73330 | 33.38665 | 23293 ft | 413 kts | 306° |
| 2026-04-30 00:16 | 28.75134 | 33.36109 | 23541 ft | 414 kts | 306° |
| 2026-04-30 00:16 | 28.76937 | 33.33556 | 23754 ft | 414 kts | 306° |
| 2026-04-30 00:16 | 28.78749 | 33.30991 | 23939 ft | 415 kts | 306° |
| 2026-04-30 00:16 | 28.80561 | 33.28422 | 24110 ft | 416 kts | 306° |
| 2026-04-30 00:17 | 28.82377 | 33.25849 | 24287 ft | 417 kts | 306° |
| 2026-04-30 00:17 | 28.84199 | 33.23263 | 24458 ft | 418 kts | 306° |
| 2026-04-30 00:17 | 28.86020 | 33.20675 | 24628 ft | 419 kts | 306° |
| 2026-04-30 00:17 | 28.87847 | 33.18078 | 24794 ft | 420 kts | 306° |
| 2026-04-30 00:18 | 28.89681 | 33.15473 | 24948 ft | 421 kts | 306° |
| 2026-04-30 00:18 | 28.91514 | 33.12867 | 25096 ft | 422 kts | 306° |
| 2026-04-30 00:18 | 28.93356 | 33.10245 | 25235 ft | 423 kts | 306° |
| 2026-04-30 00:18 | 28.95198 | 33.07627 | 25373 ft | 424 kts | 306° |
| 2026-04-30 00:19 | 28.97046 | 33.04996 | 25503 ft | 424 kts | 306° |
| 2026-04-30 00:19 | 28.98873 | 33.02392 | 25631 ft | 425 kts | 306° |
| 2026-04-30 00:19 | 29.00725 | 32.99757 | 25822 ft | 424 kts | 306° |
| 2026-04-30 00:19 | 29.02574 | 32.97129 | 26006 ft | 423 kts | 306° |
| 2026-04-30 00:20 | 29.04419 | 32.94497 | 26188 ft | 423 kts | 306° |
| 2026-04-30 00:20 | 29.06253 | 32.91871 | 26370 ft | 422 kts | 306° |
| 2026-04-30 00:20 | 29.08088 | 32.89248 | 26553 ft | 422 kts | 306° |
| 2026-04-30 00:20 | 29.09922 | 32.86620 | 26735 ft | 421 kts | 306° |
| 2026-04-30 00:21 | 29.11722 | 32.84034 | 26909 ft | 421 kts | 306° |
| 2026-04-30 00:21 | 29.13546 | 32.81414 | 27096 ft | 420 kts | 306° |
| 2026-04-30 00:21 | 29.15367 | 32.78801 | 27282 ft | 420 kts | 306° |
| 2026-04-30 00:21 | 29.17189 | 32.76190 | 27463 ft | 419 kts | 306° |
| 2026-04-30 00:22 | 29.19008 | 32.73585 | 27651 ft | 419 kts | 306° |
| 2026-04-30 00:22 | 29.20821 | 32.70983 | 27837 ft | 418 kts | 306° |
| 2026-04-30 00:22 | 29.22634 | 32.68377 | 28016 ft | 418 kts | 306° |
| 2026-04-30 00:22 | 29.24445 | 32.65773 | 28219 ft | 417 kts | 306° |
| 2026-04-30 00:23 | 29.26248 | 32.63173 | 28406 ft | 417 kts | 306° |
| 2026-04-30 00:23 | 29.28052 | 32.60577 | 28589 ft | 416 kts | 306° |
| 2026-04-30 00:23 | 29.29852 | 32.57979 | 28769 ft | 416 kts | 305° |
| 2026-04-30 00:23 | 29.31641 | 32.55385 | 28948 ft | 415 kts | 305° |
| 2026-04-30 00:24 | 29.33429 | 32.52778 | 29119 ft | 415 kts | 305° |
| 2026-04-30 00:24 | 29.34608 | 32.51055 | 29259 ft | 414 kts | 305° |
| 2026-04-30 00:24 | 29.36382 | 32.48460 | 29423 ft | 414 kts | 305° |
| 2026-04-30 00:24 | 29.38161 | 32.45857 | 29611 ft | 414 kts | 305° |
| 2026-04-30 00:25 | 29.39940 | 32.43256 | 29783 ft | 414 kts | 305° |
| 2026-04-30 00:25 | 29.42292 | 32.39819 | 30022 ft | 413 kts | 305° |
| 2026-04-30 00:25 | 29.43491 | 32.38069 | 30136 ft | 413 kts | 305° |
| 2026-04-30 00:25 | 29.45270 | 32.35474 | 30280 ft | 412 kts | 305° |
| 2026-04-30 00:26 | 29.47022 | 32.32919 | 30441 ft | 412 kts | 305° |
| 2026-04-30 00:26 | 29.48793 | 32.30332 | 30582 ft | 412 kts | 305° |
| 2026-04-30 00:26 | 29.50556 | 32.27747 | 30728 ft | 411 kts | 305° |
| 2026-04-30 00:26 | 29.52321 | 32.25154 | 30872 ft | 411 kts | 305° |
| 2026-04-30 00:27 | 29.54082 | 32.22570 | 31009 ft | 411 kts | 305° |
| 2026-04-30 00:27 | 29.55843 | 32.19988 | 31163 ft | 410 kts | 305° |
| 2026-04-30 00:27 | 29.57599 | 32.17409 | 31314 ft | 410 kts | 305° |
| 2026-04-30 00:27 | 29.59349 | 32.14834 | 31455 ft | 409 kts | 305° |
| 2026-04-30 00:28 | 29.61103 | 32.12252 | 31596 ft | 409 kts | 305° |
| 2026-04-30 00:28 | 29.62832 | 32.09707 | 31747 ft | 408 kts | 305° |
| 2026-04-30 00:28 | 29.64582 | 32.07130 | 31872 ft | 408 kts | 305° |
| 2026-04-30 00:28 | 29.66327 | 32.04560 | 32008 ft | 408 kts | 305° |
| 2026-04-30 00:29 | 29.68072 | 32.01989 | 32145 ft | 407 kts | 305° |
| 2026-04-30 00:29 | 29.69820 | 31.99416 | 32280 ft | 407 kts | 305° |
| 2026-04-30 00:29 | 29.71561 | 31.96849 | 32416 ft | 406 kts | 305° |
| 2026-04-30 00:29 | 29.73298 | 31.94286 | 32560 ft | 406 kts | 305° |
| 2026-04-30 00:30 | 29.75031 | 31.91726 | 32676 ft | 405 kts | 305° |
| 2026-04-30 00:30 | 29.76737 | 31.89201 | 32825 ft | 405 kts | 305° |
| 2026-04-30 00:30 | 29.78463 | 31.86647 | 32944 ft | 404 kts | 304° |
| 2026-04-30 00:30 | 29.80167 | 31.84077 | 33068 ft | 404 kts | 304° |
| 2026-04-30 00:31 | 29.81837 | 31.81486 | 33209 ft | 403 kts | 303° |
| 2026-04-30 00:31 | 29.83494 | 31.78876 | 33334 ft | 402 kts | 303° |
| 2026-04-30 00:31 | 29.85141 | 31.76270 | 33459 ft | 402 kts | 303° |
| 2026-04-30 00:31 | 29.86788 | 31.73671 | 33602 ft | 401 kts | 303° |
| 2026-04-30 00:32 | 29.88436 | 31.71083 | 33733 ft | 401 kts | 303° |
| 2026-04-30 00:32 | 29.90090 | 31.68495 | 33876 ft | 400 kts | 303° |
| 2026-04-30 00:32 | 29.91740 | 31.65918 | 34010 ft | 400 kts | 303° |
| 2026-04-30 00:33 | 29.95058 | 31.60778 | 34034 ft | 404 kts | 304° |
| 2026-04-30 00:33 | 29.98425 | 31.55591 | 34028 ft | 404 kts | 304° |
| 2026-04-30 00:34 | 30.01795 | 31.50394 | 34031 ft | 405 kts | 304° |
| 2026-04-30 00:34 | 30.05162 | 31.45180 | 34033 ft | 405 kts | 304° |
| 2026-04-30 00:35 | 30.08524 | 31.39959 | 34020 ft | 405 kts | 306° |
| 2026-04-30 00:35 | 30.12496 | 31.35346 | 34013 ft | 409 kts | 313° |
| 2026-04-30 00:36 | 30.16669 | 31.30870 | 34016 ft | 409 kts | 313° |
| 2026-04-30 00:36 | 30.20844 | 31.26388 | 34027 ft | 409 kts | 313° |
| 2026-04-30 00:37 | 30.25007 | 31.21914 | 34039 ft | 408 kts | 313° |
| 2026-04-30 00:37 | 30.29133 | 31.17470 | 34048 ft | 407 kts | 313° |
| 2026-04-30 00:38 | 30.33282 | 31.12999 | 34060 ft | 406 kts | 313° |
| 2026-04-30 00:38 | 30.37392 | 31.08565 | 34067 ft | 405 kts | 313° |
| 2026-04-30 00:39 | 30.41508 | 31.04106 | 34070 ft | 404 kts | 313° |
| 2026-04-30 00:39 | 30.45618 | 30.99656 | 34074 ft | 404 kts | 313° |
| 2026-04-30 00:40 | 30.49723 | 30.95216 | 34086 ft | 403 kts | 313° |
| 2026-04-30 00:40 | 30.53824 | 30.90772 | 34084 ft | 402 kts | 313° |
| 2026-04-30 00:41 | 30.57880 | 30.86368 | 34086 ft | 401 kts | 313° |
| 2026-04-30 00:41 | 30.61953 | 30.81937 | 34086 ft | 400 kts | 313° |
| 2026-04-30 00:42 | 30.66013 | 30.77513 | 34085 ft | 400 kts | 313° |
| 2026-04-30 00:42 | 30.70077 | 30.73090 | 34082 ft | 399 kts | 313° |
| 2026-04-30 00:43 | 30.74105 | 30.68702 | 34085 ft | 399 kts | 313° |
| 2026-04-30 00:43 | 30.78151 | 30.64277 | 34085 ft | 398 kts | 313° |
| 2026-04-30 00:44 | 30.82189 | 30.59854 | 34087 ft | 398 kts | 313° |
| 2026-04-30 00:44 | 30.86220 | 30.55437 | 34083 ft | 398 kts | 313° |
| 2026-04-30 00:45 | 30.90260 | 30.51013 | 34081 ft | 398 kts | 313° |
| 2026-04-30 00:45 | 30.94264 | 30.46612 | 34084 ft | 398 kts | 313° |
| 2026-04-30 00:46 | 30.98284 | 30.42191 | 34091 ft | 397 kts | 313° |
| 2026-04-30 00:46 | 31.02308 | 30.37765 | 34085 ft | 397 kts | 313° |
| 2026-04-30 00:47 | 31.06317 | 30.33341 | 34080 ft | 397 kts | 313° |
| 2026-04-30 00:47 | 31.09563 | 30.28228 | 34081 ft | 392 kts | 295° |
| 2026-04-30 00:48 | 31.11357 | 30.22260 | 34074 ft | 393 kts | 288° |
| 2026-04-30 00:48 | 31.13016 | 30.16170 | 34081 ft | 393 kts | 289° |
| 2026-04-30 00:49 | 31.14677 | 30.10082 | 34069 ft | 393 kts | 289° |
| 2026-04-30 00:49 | 31.16330 | 30.04000 | 34068 ft | 393 kts | 289° |
| 2026-04-30 00:50 | 31.18282 | 29.98065 | 34063 ft | 392 kts | 300° |
| 2026-04-30 00:50 | 31.21889 | 29.93336 | 34053 ft | 398 kts | 320° |
| 2026-04-30 00:51 | 31.26747 | 29.90106 | 34063 ft | 403 kts | 327° |
| 2026-04-30 00:51 | 31.31701 | 29.87021 | 34076 ft | 403 kts | 327° |
| 2026-04-30 00:52 | 31.36640 | 29.83923 | 34074 ft | 402 kts | 327° |
| 2026-04-30 00:52 | 31.41578 | 29.80821 | 34083 ft | 402 kts | 327° |
| 2026-04-30 00:53 | 31.46476 | 29.77744 | 34095 ft | 401 kts | 327° |
| 2026-04-30 00:53 | 31.51401 | 29.74648 | 34083 ft | 401 kts | 327° |
| 2026-04-30 00:54 | 31.56327 | 29.71557 | 34090 ft | 401 kts | 327° |
| 2026-04-30 00:54 | 31.61238 | 29.68470 | 34089 ft | 401 kts | 327° |
| 2026-04-30 00:55 | 31.66150 | 29.65374 | 34090 ft | 400 kts | 327° |
| 2026-04-30 00:55 | 31.73503 | 29.60722 | 34094 ft | 400 kts | 327° |
| 2026-04-30 00:56 | 31.78408 | 29.57624 | 34089 ft | 400 kts | 327° |
| 2026-04-30 00:56 | 31.83315 | 29.54527 | 34095 ft | 400 kts | 327° |
| 2026-04-30 00:57 | 31.88185 | 29.51443 | 34096 ft | 400 kts | 327° |
| 2026-04-30 00:57 | 31.93090 | 29.48326 | 34095 ft | 400 kts | 327° |
| 2026-04-30 00:58 | 31.97985 | 29.45210 | 34099 ft | 399 kts | 326° |
| 2026-04-30 00:58 | 32.02876 | 29.42097 | 34095 ft | 399 kts | 327° |
| 2026-04-30 00:59 | 32.07741 | 29.39007 | 34097 ft | 399 kts | 327° |
| 2026-04-30 00:59 | 32.12627 | 29.35894 | 34096 ft | 399 kts | 326° |
| 2026-04-30 01:00 | 32.17524 | 29.32770 | 34093 ft | 399 kts | 326° |
| 2026-04-30 01:00 | 32.22372 | 29.29670 | 34093 ft | 399 kts | 326° |
| 2026-04-30 01:01 | 32.27258 | 29.26543 | 34092 ft | 399 kts | 326° |
| 2026-04-30 01:01 | 32.32136 | 29.23414 | 34092 ft | 399 kts | 326° |
| 2026-04-30 01:02 | 32.37016 | 29.20271 | 34093 ft | 398 kts | 326° |
| 2026-04-30 01:02 | 32.41886 | 29.17131 | 34090 ft | 399 kts | 326° |
| 2026-04-30 01:03 | 32.46727 | 29.14008 | 34083 ft | 398 kts | 326° |
| 2026-04-30 01:03 | 32.51600 | 29.10870 | 34085 ft | 398 kts | 326° |
| 2026-04-30 01:04 | 32.56468 | 29.07733 | 34086 ft | 398 kts | 326° |
| 2026-04-30 01:04 | 32.61342 | 29.04589 | 34087 ft | 398 kts | 326° |
| 2026-04-30 01:05 | 32.66174 | 29.01465 | 34073 ft | 398 kts | 326° |
| 2026-04-30 01:05 | 32.71030 | 28.98315 | 34062 ft | 398 kts | 326° |
| 2026-04-30 01:06 | 32.75892 | 28.95162 | 34062 ft | 398 kts | 326° |
| 2026-04-30 01:06 | 32.80759 | 28.92004 | 34061 ft | 398 kts | 326° |
| 2026-04-30 01:07 | 32.85622 | 28.88842 | 34064 ft | 398 kts | 326° |
| 2026-04-30 01:07 | 32.90488 | 28.85672 | 34069 ft | 399 kts | 326° |
| 2026-04-30 01:08 | 32.95354 | 28.82502 | 34075 ft | 399 kts | 326° |
| 2026-04-30 01:08 | 33.00226 | 28.79329 | 34077 ft | 398 kts | 326° |
| 2026-04-30 01:09 | 33.05055 | 28.76175 | 34076 ft | 399 kts | 326° |
| 2026-04-30 01:09 | 33.09930 | 28.72990 | 34079 ft | 399 kts | 326° |
| 2026-04-30 01:10 | 33.14797 | 28.69794 | 34054 ft | 399 kts | 326° |
| 2026-04-30 01:10 | 33.19662 | 28.66600 | 34056 ft | 399 kts | 326° |
| 2026-04-30 01:11 | 33.24534 | 28.63395 | 34052 ft | 400 kts | 326° |
| 2026-04-30 01:11 | 33.29381 | 28.60207 | 34070 ft | 400 kts | 326° |
| 2026-04-30 01:12 | 33.34266 | 28.56985 | 34077 ft | 400 kts | 326° |
| 2026-04-30 01:12 | 33.39144 | 28.53767 | 34076 ft | 400 kts | 326° |
| 2026-04-30 01:13 | 33.44027 | 28.50543 | 34074 ft | 401 kts | 327° |
| 2026-04-30 01:13 | 33.48919 | 28.47319 | 34068 ft | 401 kts | 326° |
| 2026-04-30 01:14 | 33.53779 | 28.44100 | 34069 ft | 401 kts | 327° |
| 2026-04-30 01:14 | 33.58664 | 28.40856 | 34075 ft | 402 kts | 326° |
| 2026-04-30 01:15 | 33.63557 | 28.37603 | 34071 ft | 402 kts | 327° |
| 2026-04-30 01:15 | 33.67626 | 28.34910 | 34072 ft | 402 kts | 327° |
| 2026-04-30 01:16 | 33.72525 | 28.31649 | 34073 ft | 403 kts | 327° |
| 2026-04-30 01:16 | 33.77437 | 28.28376 | 34071 ft | 403 kts | 327° |
| 2026-04-30 01:17 | 33.82348 | 28.25102 | 34063 ft | 404 kts | 327° |
| 2026-04-30 01:17 | 33.87257 | 28.21796 | 34061 ft | 404 kts | 326° |
| 2026-04-30 01:18 | 33.92164 | 28.18473 | 34064 ft | 405 kts | 326° |
| 2026-04-30 01:18 | 33.97053 | 28.15154 | 34064 ft | 405 kts | 327° |
| 2026-04-30 01:19 | 34.01979 | 28.11814 | 34061 ft | 406 kts | 327° |
| 2026-04-30 01:19 | 34.06909 | 28.08474 | 34063 ft | 406 kts | 326° |
| 2026-04-30 01:20 | 34.11840 | 28.05116 | 34058 ft | 407 kts | 327° |
| 2026-04-30 01:20 | 34.16748 | 28.01773 | 34056 ft | 407 kts | 327° |
| 2026-04-30 01:21 | 34.21691 | 27.98412 | 34047 ft | 408 kts | 327° |
| 2026-04-30 01:21 | 34.26646 | 27.95033 | 34051 ft | 408 kts | 327° |
| 2026-04-30 01:22 | 34.31576 | 27.91672 | 34052 ft | 409 kts | 327° |
| 2026-04-30 01:22 | 34.36528 | 27.88287 | 34045 ft | 409 kts | 327° |
| 2026-04-30 01:23 | 34.41503 | 27.84889 | 34051 ft | 410 kts | 327° |
| 2026-04-30 01:23 | 34.46474 | 27.81490 | 34055 ft | 410 kts | 327° |
| 2026-04-30 01:24 | 34.51443 | 27.78072 | 34065 ft | 411 kts | 327° |
| 2026-04-30 01:24 | 34.56389 | 27.74667 | 34059 ft | 411 kts | 327° |
| 2026-04-30 01:25 | 34.61360 | 27.71231 | 34056 ft | 411 kts | 327° |
| 2026-04-30 01:25 | 34.66344 | 27.67779 | 34052 ft | 412 kts | 327° |
| 2026-04-30 01:26 | 34.71317 | 27.64330 | 34056 ft | 412 kts | 327° |
| 2026-04-30 01:26 | 34.76318 | 27.60873 | 34073 ft | 413 kts | 327° |
| 2026-04-30 01:27 | 34.81283 | 27.57421 | 34063 ft | 413 kts | 327° |
| 2026-04-30 01:27 | 34.86275 | 27.53946 | 34062 ft | 413 kts | 327° |
| 2026-04-30 01:28 | 34.91268 | 27.50461 | 34060 ft | 413 kts | 327° |
| 2026-04-30 01:28 | 34.96270 | 27.46959 | 34054 ft | 414 kts | 327° |
| 2026-04-30 01:29 | 35.01280 | 27.43461 | 34055 ft | 414 kts | 327° |
| 2026-04-30 01:29 | 35.06254 | 27.39986 | 34057 ft | 415 kts | 327° |
| 2026-04-30 01:30 | 35.11271 | 27.36482 | 34058 ft | 415 kts | 327° |
| 2026-04-30 01:30 | 35.16286 | 27.32957 | 34058 ft | 416 kts | 327° |
| 2026-04-30 01:31 | 35.21296 | 27.29422 | 34059 ft | 416 kts | 327° |
| 2026-04-30 01:31 | 35.26318 | 27.25891 | 34060 ft | 417 kts | 327° |
| 2026-04-30 01:32 | 35.31366 | 27.22343 | 34064 ft | 418 kts | 327° |
| 2026-04-30 01:32 | 35.36402 | 27.18789 | 34069 ft | 418 kts | 327° |
| 2026-04-30 01:33 | 35.41415 | 27.15244 | 34067 ft | 418 kts | 327° |
| 2026-04-30 01:33 | 35.46693 | 27.12162 | 34063 ft | 420 kts | 332° |
| 2026-04-30 01:34 | 35.52015 | 27.09174 | 34064 ft | 421 kts | 332° |
| 2026-04-30 01:34 | 35.57345 | 27.06175 | 34062 ft | 422 kts | 332° |